sensor_id;sensor_type;location;lat;lon;timestamp;P1;durP1;ratioP1;P2;durP2;ratioP2
86088;SDS011;76699;52.232;5.176;2024-03-08T00:01:52;29.90;;;11.45;;
86088;SDS011;76699;52.232;5.176;2024-03-08T00:04:18;28.00;;;10.65;;
86088;SDS011;76699;52.232;5.176;2024-03-08T00:06:43;32.67;;;11.80;;
86088;SDS011;76699;52.232;5.176;2024-03-08T00:09:11;33.70;;;11.98;;
86088;SDS011;76699;52.232;5.176;2024-03-08T00:11:36;33.95;;;12.70;;
86088;SDS011;76699;52.232;5.176;2024-03-08T00:14:03;31.30;;;12.35;;
86088;SDS011;76699;52.232;5.176;2024-03-08T00:16:31;17.60;;;7.30;;
86088;SDS011;76699;52.232;5.176;2024-03-08T00:18:58;28.83;;;11.35;;
86088;SDS011;76699;52.232;5.176;2024-03-08T00:21:23;29.20;;;10.55;;
86088;SDS011;76699;52.232;5.176;2024-03-08T00:23:49;15.95;;;6.22;;
86088;SDS011;76699;52.232;5.176;2024-03-08T00:26:14;27.60;;;9.90;;
86088;SDS011;76699;52.232;5.176;2024-03-08T00:28:40;22.52;;;8.00;;
86088;SDS011;76699;52.232;5.176;2024-03-08T00:31:05;29.67;;;10.70;;
86088;SDS011;76699;52.232;5.176;2024-03-08T00:33:32;24.10;;;9.52;;
86088;SDS011;76699;52.232;5.176;2024-03-08T00:35:57;28.10;;;11.07;;
86088;SDS011;76699;52.232;5.176;2024-03-08T00:38:23;26.67;;;10.27;;
86088;SDS011;76699;52.232;5.176;2024-03-08T00:40:48;41.30;;;13.27;;
86088;SDS011;76699;52.232;5.176;2024-03-08T00:43:13;29.93;;;10.60;;
86088;SDS011;76699;52.232;5.176;2024-03-08T00:45:40;24.92;;;10.10;;
86088;SDS011;76699;52.232;5.176;2024-03-08T00:48:07;30.80;;;11.43;;
86088;SDS011;76699;52.232;5.176;2024-03-08T00:50:33;32.58;;;11.98;;
86088;SDS011;76699;52.232;5.176;2024-03-08T00:52:59;24.42;;;10.25;;
86088;SDS011;76699;52.232;5.176;2024-03-08T00:55:24;26.40;;;11.50;;
86088;SDS011;76699;52.232;5.176;2024-03-08T00:57:50;26.30;;;10.02;;
86088;SDS011;76699;52.232;5.176;2024-03-08T01:00:15;27.90;;;10.03;;
86088;SDS011;76699;52.232;5.176;2024-03-08T01:02:41;23.20;;;8.65;;
86088;SDS011;76699;52.232;5.176;2024-03-08T01:05:07;19.83;;;8.05;;
86088;SDS011;76699;52.232;5.176;2024-03-08T01:07:33;29.45;;;11.73;;
86088;SDS011;76699;52.232;5.176;2024-03-08T01:10:00;26.33;;;10.43;;
86088;SDS011;76699;52.232;5.176;2024-03-08T01:12:26;32.25;;;11.80;;
86088;SDS011;76699;52.232;5.176;2024-03-08T01:14:51;30.23;;;11.25;;
86088;SDS011;76699;52.232;5.176;2024-03-08T01:17:17;25.38;;;11.88;;
86088;SDS011;76699;52.232;5.176;2024-03-08T01:19:42;27.20;;;10.13;;
86088;SDS011;76699;52.232;5.176;2024-03-08T01:22:09;23.70;;;9.10;;
86088;SDS011;76699;52.232;5.176;2024-03-08T01:24:35;22.23;;;8.85;;
86088;SDS011;76699;52.232;5.176;2024-03-08T01:27:00;31.97;;;12.07;;
86088;SDS011;76699;52.232;5.176;2024-03-08T01:29:27;24.30;;;9.63;;
86088;SDS011;76699;52.232;5.176;2024-03-08T01:31:54;28.30;;;10.30;;
86088;SDS011;76699;52.232;5.176;2024-03-08T01:34:19;34.37;;;11.97;;
86088;SDS011;76699;52.232;5.176;2024-03-08T01:36:45;37.77;;;12.00;;
86088;SDS011;76699;52.232;5.176;2024-03-08T01:39:10;29.33;;;11.83;;
86088;SDS011;76699;52.232;5.176;2024-03-08T01:41:35;19.95;;;8.95;;
86088;SDS011;76699;52.232;5.176;2024-03-08T01:44:01;29.60;;;11.30;;
86088;SDS011;76699;52.232;5.176;2024-03-08T01:46:28;18.23;;;7.38;;
86088;SDS011;76699;52.232;5.176;2024-03-08T01:48:54;27.85;;;11.75;;
86088;SDS011;76699;52.232;5.176;2024-03-08T01:51:19;31.73;;;12.18;;
86088;SDS011;76699;52.232;5.176;2024-03-08T01:53:45;21.40;;;9.57;;
86088;SDS011;76699;52.232;5.176;2024-03-08T01:56:12;27.85;;;10.55;;
86088;SDS011;76699;52.232;5.176;2024-03-08T01:58:38;31.00;;;12.23;;
86088;SDS011;76699;52.232;5.176;2024-03-08T02:01:07;25.85;;;9.50;;
86088;SDS011;76699;52.232;5.176;2024-03-08T02:03:34;27.50;;;11.00;;
86088;SDS011;76699;52.232;5.176;2024-03-08T02:05:59;29.77;;;11.20;;
86088;SDS011;76699;52.232;5.176;2024-03-08T02:08:24;33.80;;;12.43;;
86088;SDS011;76699;52.232;5.176;2024-03-08T02:10:50;29.48;;;9.20;;
86088;SDS011;76699;52.232;5.176;2024-03-08T02:13:15;29.57;;;11.83;;
86088;SDS011;76699;52.232;5.176;2024-03-08T02:15:57;29.90;;;11.43;;
86088;SDS011;76699;52.232;5.176;2024-03-08T02:18:28;23.85;;;10.18;;
86088;SDS011;76699;52.232;5.176;2024-03-08T02:21:00;27.58;;;10.80;;
86088;SDS011;76699;52.232;5.176;2024-03-08T02:23:27;17.30;;;6.88;;
86088;SDS011;76699;52.232;5.176;2024-03-08T02:25:54;26.27;;;10.25;;
86088;SDS011;76699;52.232;5.176;2024-03-08T02:28:21;18.67;;;7.82;;
86088;SDS011;76699;52.232;5.176;2024-03-08T02:30:47;24.02;;;9.52;;
86088;SDS011;76699;52.232;5.176;2024-03-08T02:33:13;29.02;;;10.45;;
86088;SDS011;76699;52.232;5.176;2024-03-08T02:35:43;30.10;;;9.98;;
86088;SDS011;76699;52.232;5.176;2024-03-08T02:38:15;18.70;;;7.63;;
86088;SDS011;76699;52.232;5.176;2024-03-08T02:40:43;25.35;;;9.13;;
86088;SDS011;76699;52.232;5.176;2024-03-08T02:43:09;30.92;;;11.70;;
86088;SDS011;76699;52.232;5.176;2024-03-08T02:45:36;33.78;;;11.95;;
86088;SDS011;76699;52.232;5.176;2024-03-08T02:48:01;30.90;;;11.30;;
86088;SDS011;76699;52.232;5.176;2024-03-08T02:50:26;27.67;;;11.18;;
86088;SDS011;76699;52.232;5.176;2024-03-08T02:52:52;21.17;;;8.57;;
86088;SDS011;76699;52.232;5.176;2024-03-08T02:55:17;24.33;;;10.23;;
86088;SDS011;76699;52.232;5.176;2024-03-08T02:57:42;22.63;;;8.73;;
86088;SDS011;76699;52.232;5.176;2024-03-08T03:00:08;32.75;;;11.38;;
86088;SDS011;76699;52.232;5.176;2024-03-08T03:02:35;15.80;;;5.55;;
86088;SDS011;76699;52.232;5.176;2024-03-08T03:05:00;33.35;;;11.05;;
86088;SDS011;76699;52.232;5.176;2024-03-08T03:07:30;23.33;;;8.23;;
86088;SDS011;76699;52.232;5.176;2024-03-08T03:09:56;32.53;;;12.70;;
86088;SDS011;76699;52.232;5.176;2024-03-08T03:12:21;27.27;;;11.13;;
86088;SDS011;76699;52.232;5.176;2024-03-08T03:14:46;29.40;;;11.07;;
86088;SDS011;76699;52.232;5.176;2024-03-08T03:17:12;30.50;;;11.70;;
86088;SDS011;76699;52.232;5.176;2024-03-08T03:19:40;25.73;;;11.13;;
86088;SDS011;76699;52.232;5.176;2024-03-08T03:22:06;20.15;;;8.18;;
86088;SDS011;76699;52.232;5.176;2024-03-08T03:24:32;27.97;;;11.20;;
86088;SDS011;76699;52.232;5.176;2024-03-08T03:26:57;28.48;;;9.25;;
86088;SDS011;76699;52.232;5.176;2024-03-08T03:29:24;28.98;;;9.18;;
86088;SDS011;76699;52.232;5.176;2024-03-08T03:31:50;29.20;;;10.43;;
86088;SDS011;76699;52.232;5.176;2024-03-08T03:34:15;25.50;;;10.90;;
86088;SDS011;76699;52.232;5.176;2024-03-08T03:36:41;28.10;;;11.68;;
86088;SDS011;76699;52.232;5.176;2024-03-08T03:39:08;26.92;;;10.68;;
86088;SDS011;76699;52.232;5.176;2024-03-08T03:41:45;13.00;;;6.60;;
86088;SDS011;76699;52.232;5.176;2024-03-08T03:44:11;28.92;;;11.13;;
86088;SDS011;76699;52.232;5.176;2024-03-08T03:46:36;28.50;;;10.43;;
86088;SDS011;76699;52.232;5.176;2024-03-08T03:49:01;21.93;;;9.83;;
86088;SDS011;76699;52.232;5.176;2024-03-08T03:51:28;23.80;;;10.88;;
86088;SDS011;76699;52.232;5.176;2024-03-08T03:53:54;13.52;;;6.32;;
86088;SDS011;76699;52.232;5.176;2024-03-08T03:56:24;29.77;;;11.48;;
86088;SDS011;76699;52.232;5.176;2024-03-08T03:58:50;25.80;;;10.77;;
86088;SDS011;76699;52.232;5.176;2024-03-08T04:01:16;22.58;;;8.23;;
86088;SDS011;76699;52.232;5.176;2024-03-08T04:03:41;25.67;;;9.80;;
86088;SDS011;76699;52.232;5.176;2024-03-08T04:06:08;22.60;;;8.75;;
86088;SDS011;76699;52.232;5.176;2024-03-08T04:08:33;32.08;;;11.60;;
86088;SDS011;76699;52.232;5.176;2024-03-08T04:10:59;33.03;;;12.25;;
86088;SDS011;76699;52.232;5.176;2024-03-08T04:13:25;33.47;;;12.57;;
86088;SDS011;76699;52.232;5.176;2024-03-08T04:15:51;25.92;;;10.07;;
86088;SDS011;76699;52.232;5.176;2024-03-08T04:18:16;27.73;;;11.52;;
86088;SDS011;76699;52.232;5.176;2024-03-08T04:20:43;18.25;;;7.55;;
86088;SDS011;76699;52.232;5.176;2024-03-08T04:23:08;27.70;;;11.85;;
86088;SDS011;76699;52.232;5.176;2024-03-08T04:25:33;32.90;;;12.47;;
86088;SDS011;76699;52.232;5.176;2024-03-08T04:27:59;30.87;;;11.80;;
86088;SDS011;76699;52.232;5.176;2024-03-08T04:30:24;26.20;;;11.23;;
86088;SDS011;76699;52.232;5.176;2024-03-08T04:32:50;32.33;;;13.07;;
86088;SDS011;76699;52.232;5.176;2024-03-08T04:35:15;22.10;;;8.95;;
86088;SDS011;76699;52.232;5.176;2024-03-08T04:37:41;33.17;;;11.80;;
86088;SDS011;76699;52.232;5.176;2024-03-08T04:40:06;26.00;;;10.97;;
86088;SDS011;76699;52.232;5.176;2024-03-08T04:42:32;30.85;;;13.45;;
86088;SDS011;76699;52.232;5.176;2024-03-08T04:44:58;34.05;;;12.73;;
86088;SDS011;76699;52.232;5.176;2024-03-08T04:47:24;29.53;;;10.93;;
86088;SDS011;76699;52.232;5.176;2024-03-08T04:49:49;21.65;;;9.10;;
86088;SDS011;76699;52.232;5.176;2024-03-08T04:52:15;22.85;;;9.13;;
86088;SDS011;76699;52.232;5.176;2024-03-08T04:54:41;29.83;;;11.32;;
86088;SDS011;76699;52.232;5.176;2024-03-08T04:57:06;28.83;;;12.05;;
86088;SDS011;76699;52.232;5.176;2024-03-08T04:59:32;32.47;;;12.77;;
86088;SDS011;76699;52.232;5.176;2024-03-08T05:01:58;16.67;;;7.78;;
86088;SDS011;76699;52.232;5.176;2024-03-08T05:04:23;34.13;;;14.80;;
86088;SDS011;76699;52.232;5.176;2024-03-08T05:06:48;26.97;;;9.90;;
86088;SDS011;76699;52.232;5.176;2024-03-08T05:09:14;26.97;;;11.93;;
86088;SDS011;76699;52.232;5.176;2024-03-08T05:11:43;27.80;;;11.13;;
86088;SDS011;76699;52.232;5.176;2024-03-08T05:14:10;33.78;;;13.38;;
86088;SDS011;76699;52.232;5.176;2024-03-08T05:16:35;27.75;;;10.85;;
86088;SDS011;76699;52.232;5.176;2024-03-08T05:19:04;29.20;;;12.05;;
86088;SDS011;76699;52.232;5.176;2024-03-08T05:21:29;32.95;;;15.05;;
86088;SDS011;76699;52.232;5.176;2024-03-08T05:23:55;23.43;;;8.30;;
86088;SDS011;76699;52.232;5.176;2024-03-08T05:26:20;34.13;;;13.65;;
86088;SDS011;76699;52.232;5.176;2024-03-08T05:28:47;26.25;;;10.57;;
86088;SDS011;76699;52.232;5.176;2024-03-08T05:31:22;32.42;;;13.38;;
86088;SDS011;76699;52.232;5.176;2024-03-08T05:33:48;26.02;;;9.38;;
86088;SDS011;76699;52.232;5.176;2024-03-08T05:36:14;27.77;;;11.70;;
86088;SDS011;76699;52.232;5.176;2024-03-08T05:38:41;30.67;;;12.45;;
86088;SDS011;76699;52.232;5.176;2024-03-08T05:41:08;27.98;;;11.57;;
86088;SDS011;76699;52.232;5.176;2024-03-08T05:43:34;29.63;;;12.35;;
86088;SDS011;76699;52.232;5.176;2024-03-08T05:45:59;29.63;;;11.07;;
86088;SDS011;76699;52.232;5.176;2024-03-08T05:48:24;26.70;;;10.23;;
86088;SDS011;76699;52.232;5.176;2024-03-08T05:50:50;16.23;;;6.67;;
86088;SDS011;76699;52.232;5.176;2024-03-08T05:53:15;18.50;;;8.27;;
86088;SDS011;76699;52.232;5.176;2024-03-08T05:55:40;25.83;;;10.60;;
86088;SDS011;76699;52.232;5.176;2024-03-08T05:58:06;19.60;;;8.63;;
86088;SDS011;76699;52.232;5.176;2024-03-08T06:00:32;15.52;;;6.75;;
86088;SDS011;76699;52.232;5.176;2024-03-08T06:02:58;22.95;;;9.25;;
86088;SDS011;76699;52.232;5.176;2024-03-08T06:05:24;32.07;;;13.97;;
86088;SDS011;76699;52.232;5.176;2024-03-08T06:07:49;22.88;;;9.80;;
86088;SDS011;76699;52.232;5.176;2024-03-08T06:10:14;22.47;;;9.27;;
86088;SDS011;76699;52.232;5.176;2024-03-08T06:12:42;26.70;;;10.40;;
86088;SDS011;76699;52.232;5.176;2024-03-08T06:15:08;28.63;;;12.57;;
86088;SDS011;76699;52.232;5.176;2024-03-08T06:17:35;28.23;;;11.77;;
86088;SDS011;76699;52.232;5.176;2024-03-08T06:20:03;29.83;;;13.05;;
86088;SDS011;76699;52.232;5.176;2024-03-08T06:22:35;17.40;;;6.20;;
86088;SDS011;76699;52.232;5.176;2024-03-08T06:25:00;21.23;;;8.27;;
86088;SDS011;76699;52.232;5.176;2024-03-08T06:27:26;26.33;;;10.07;;
86088;SDS011;76699;52.232;5.176;2024-03-08T06:29:51;19.47;;;8.43;;
86088;SDS011;76699;52.232;5.176;2024-03-08T06:32:16;25.80;;;9.97;;
86088;SDS011;76699;52.232;5.176;2024-03-08T06:34:42;22.83;;;9.70;;
86088;SDS011;76699;52.232;5.176;2024-03-08T06:37:07;14.53;;;6.77;;
86088;SDS011;76699;52.232;5.176;2024-03-08T06:39:32;24.20;;;10.13;;
86088;SDS011;76699;52.232;5.176;2024-03-08T06:41:59;28.20;;;10.93;;
86088;SDS011;76699;52.232;5.176;2024-03-08T06:44:25;16.13;;;7.40;;
86088;SDS011;76699;52.232;5.176;2024-03-08T06:46:50;18.98;;;8.38;;
86088;SDS011;76699;52.232;5.176;2024-03-08T06:49:16;25.48;;;11.27;;
86088;SDS011;76699;52.232;5.176;2024-03-08T06:51:41;26.67;;;11.07;;
86088;SDS011;76699;52.232;5.176;2024-03-08T06:54:07;32.50;;;13.85;;
86088;SDS011;76699;52.232;5.176;2024-03-08T06:56:36;26.48;;;10.80;;
86088;SDS011;76699;52.232;5.176;2024-03-08T06:59:02;29.60;;;11.98;;
86088;SDS011;76699;52.232;5.176;2024-03-08T07:01:28;26.00;;;12.18;;
86088;SDS011;76699;52.232;5.176;2024-03-08T07:03:56;24.45;;;11.05;;
86088;SDS011;76699;52.232;5.176;2024-03-08T07:06:22;27.08;;;12.52;;
86088;SDS011;76699;52.232;5.176;2024-03-08T07:08:47;27.20;;;12.67;;
86088;SDS011;76699;52.232;5.176;2024-03-08T07:11:13;25.88;;;12.38;;
86088;SDS011;76699;52.232;5.176;2024-03-08T07:13:43;26.00;;;12.70;;
86088;SDS011;76699;52.232;5.176;2024-03-08T07:16:09;25.75;;;12.07;;
86088;SDS011;76699;52.232;5.176;2024-03-08T07:18:36;23.17;;;10.77;;
86088;SDS011;76699;52.232;5.176;2024-03-08T07:21:04;24.30;;;12.98;;
86088;SDS011;76699;52.232;5.176;2024-03-08T07:23:31;21.77;;;9.38;;
86088;SDS011;76699;52.232;5.176;2024-03-08T07:26:18;22.92;;;12.32;;
86088;SDS011;76699;52.232;5.176;2024-03-08T07:28:45;26.85;;;13.70;;
86088;SDS011;76699;52.232;5.176;2024-03-08T07:31:10;18.43;;;9.00;;
86088;SDS011;76699;52.232;5.176;2024-03-08T07:33:41;22.35;;;10.93;;
86088;SDS011;76699;52.232;5.176;2024-03-08T07:36:07;21.07;;;11.03;;
86088;SDS011;76699;52.232;5.176;2024-03-08T07:38:33;21.70;;;11.80;;
86088;SDS011;76699;52.232;5.176;2024-03-08T07:40:58;19.90;;;10.70;;
86088;SDS011;76699;52.232;5.176;2024-03-08T07:43:24;25.05;;;13.10;;
86088;SDS011;76699;52.232;5.176;2024-03-08T07:45:50;20.83;;;10.10;;
86088;SDS011;76699;52.232;5.176;2024-03-08T07:48:17;23.40;;;12.60;;
86088;SDS011;76699;52.232;5.176;2024-03-08T07:50:43;21.67;;;11.55;;
86088;SDS011;76699;52.232;5.176;2024-03-08T07:53:08;20.17;;;11.43;;
86088;SDS011;76699;52.232;5.176;2024-03-08T07:55:34;25.38;;;12.77;;
86088;SDS011;76699;52.232;5.176;2024-03-08T07:58:00;24.02;;;13.20;;
86088;SDS011;76699;52.232;5.176;2024-03-08T08:00:26;19.00;;;10.60;;
86088;SDS011;76699;52.232;5.176;2024-03-08T08:02:52;19.27;;;11.15;;
86088;SDS011;76699;52.232;5.176;2024-03-08T08:05:18;17.23;;;8.35;;
86088;SDS011;76699;52.232;5.176;2024-03-08T08:07:44;22.23;;;12.93;;
86088;SDS011;76699;52.232;5.176;2024-03-08T08:10:11;24.75;;;13.98;;
86088;SDS011;76699;52.232;5.176;2024-03-08T08:12:43;21.20;;;11.30;;
86088;SDS011;76699;52.232;5.176;2024-03-08T08:15:08;20.00;;;10.40;;
86088;SDS011;76699;52.232;5.176;2024-03-08T08:17:34;23.30;;;12.13;;
86088;SDS011;76699;52.232;5.176;2024-03-08T08:19:59;19.42;;;10.65;;
86088;SDS011;76699;52.232;5.176;2024-03-08T08:22:25;19.75;;;9.73;;
86088;SDS011;76699;52.232;5.176;2024-03-08T08:24:50;16.70;;;10.33;;
86088;SDS011;76699;52.232;5.176;2024-03-08T08:27:17;21.13;;;12.05;;
86088;SDS011;76699;52.232;5.176;2024-03-08T08:29:42;24.08;;;14.13;;
86088;SDS011;76699;52.232;5.176;2024-03-08T08:32:08;22.75;;;13.13;;
86088;SDS011;76699;52.232;5.176;2024-03-08T08:34:33;23.95;;;14.38;;
86088;SDS011;76699;52.232;5.176;2024-03-08T08:36:59;23.33;;;14.03;;
86088;SDS011;76699;52.232;5.176;2024-03-08T08:39:24;23.80;;;13.70;;
86088;SDS011;76699;52.232;5.176;2024-03-08T08:41:50;23.23;;;12.45;;
86088;SDS011;76699;52.232;5.176;2024-03-08T08:44:16;18.73;;;11.07;;
86088;SDS011;76699;52.232;5.176;2024-03-08T08:46:41;20.60;;;12.47;;
86088;SDS011;76699;52.232;5.176;2024-03-08T08:49:07;21.20;;;11.32;;
86088;SDS011;76699;52.232;5.176;2024-03-08T08:51:35;22.45;;;11.40;;
86088;SDS011;76699;52.232;5.176;2024-03-08T08:54:01;24.08;;;14.25;;
86088;SDS011;76699;52.232;5.176;2024-03-08T08:56:27;20.92;;;12.48;;
86088;SDS011;76699;52.232;5.176;2024-03-08T08:58:53;18.67;;;11.60;;
86088;SDS011;76699;52.232;5.176;2024-03-08T09:01:19;25.15;;;13.95;;
86088;SDS011;76699;52.232;5.176;2024-03-08T09:03:45;17.23;;;9.45;;
86088;SDS011;76699;52.232;5.176;2024-03-08T09:06:15;21.08;;;11.63;;
86088;SDS011;76699;52.232;5.176;2024-03-08T09:08:41;22.55;;;13.10;;
86088;SDS011;76699;52.232;5.176;2024-03-08T09:11:07;18.92;;;10.23;;
86088;SDS011;76699;52.232;5.176;2024-03-08T09:13:32;18.60;;;10.40;;
86088;SDS011;76699;52.232;5.176;2024-03-08T09:16:01;21.50;;;12.93;;
86088;SDS011;76699;52.232;5.176;2024-03-08T09:20:55;28.17;;;14.17;;
86088;SDS011;76699;52.232;5.176;2024-03-08T09:23:20;24.98;;;13.02;;
86088;SDS011;76699;52.232;5.176;2024-03-08T09:25:46;22.53;;;14.00;;
86088;SDS011;76699;52.232;5.176;2024-03-08T09:28:11;21.05;;;12.32;;
86088;SDS011;76699;52.232;5.176;2024-03-08T09:30:37;19.20;;;12.18;;
86088;SDS011;76699;52.232;5.176;2024-03-08T09:33:03;22.05;;;13.68;;
86088;SDS011;76699;52.232;5.176;2024-03-08T09:35:29;19.55;;;11.65;;
86088;SDS011;76699;52.232;5.176;2024-03-08T09:37:55;22.15;;;12.20;;
86088;SDS011;76699;52.232;5.176;2024-03-08T09:40:20;20.02;;;11.68;;
86088;SDS011;76699;52.232;5.176;2024-03-08T09:42:48;21.80;;;11.98;;
86088;SDS011;76699;52.232;5.176;2024-03-08T09:45:14;21.65;;;12.52;;
86088;SDS011;76699;52.232;5.176;2024-03-08T09:47:42;21.23;;;11.32;;
86088;SDS011;76699;52.232;5.176;2024-03-08T09:50:09;22.17;;;13.63;;
86088;SDS011;76699;52.232;5.176;2024-03-08T09:52:38;23.92;;;14.73;;
86088;SDS011;76699;52.232;5.176;2024-03-08T09:55:05;25.77;;;14.68;;
86088;SDS011;76699;52.232;5.176;2024-03-08T09:57:32;15.82;;;10.10;;
86088;SDS011;76699;52.232;5.176;2024-03-08T09:59:58;20.52;;;11.48;;
86088;SDS011;76699;52.232;5.176;2024-03-08T10:02:23;23.45;;;13.70;;
86088;SDS011;76699;52.232;5.176;2024-03-08T10:04:49;24.43;;;14.60;;
86088;SDS011;76699;52.232;5.176;2024-03-08T10:07:18;21.02;;;13.02;;
86088;SDS011;76699;52.232;5.176;2024-03-08T10:09:43;23.02;;;13.93;;
86088;SDS011;76699;52.232;5.176;2024-03-08T10:12:15;20.83;;;12.88;;
86088;SDS011;76699;52.232;5.176;2024-03-08T10:14:44;23.50;;;13.23;;
86088;SDS011;76699;52.232;5.176;2024-03-08T10:17:11;26.45;;;15.13;;
86088;SDS011;76699;52.232;5.176;2024-03-08T10:19:37;21.65;;;12.40;;
86088;SDS011;76699;52.232;5.176;2024-03-08T10:22:02;22.48;;;13.50;;
86088;SDS011;76699;52.232;5.176;2024-03-08T10:24:29;20.60;;;12.70;;
86088;SDS011;76699;52.232;5.176;2024-03-08T10:27:03;17.43;;;11.37;;
86088;SDS011;76699;52.232;5.176;2024-03-08T10:29:32;21.08;;;13.50;;
86088;SDS011;76699;52.232;5.176;2024-03-08T10:31:57;22.13;;;13.55;;
86088;SDS011;76699;52.232;5.176;2024-03-08T10:34:23;21.03;;;13.37;;
86088;SDS011;76699;52.232;5.176;2024-03-08T10:36:49;16.67;;;10.68;;
86088;SDS011;76699;52.232;5.176;2024-03-08T10:41:44;17.67;;;11.30;;
86088;SDS011;76699;52.232;5.176;2024-03-08T10:44:25;22.15;;;14.25;;
86088;SDS011;76699;52.232;5.176;2024-03-08T10:49:38;17.20;;;10.55;;
86088;SDS011;76699;52.232;5.176;2024-03-08T10:52:10;22.25;;;13.70;;
86088;SDS011;76699;52.232;5.176;2024-03-08T10:54:37;19.08;;;11.18;;
86088;SDS011;76699;52.232;5.176;2024-03-08T10:57:05;15.85;;;10.02;;
86088;SDS011;76699;52.232;5.176;2024-03-08T10:59:31;19.30;;;11.23;;
86088;SDS011;76699;52.232;5.176;2024-03-08T11:01:58;18.15;;;11.57;;
86088;SDS011;76699;52.232;5.176;2024-03-08T11:04:24;20.77;;;11.00;;
86088;SDS011;76699;52.232;5.176;2024-03-08T11:06:50;19.67;;;12.07;;
86088;SDS011;76699;52.232;5.176;2024-03-08T11:09:37;23.70;;;13.38;;
86088;SDS011;76699;52.232;5.176;2024-03-08T11:19:57;17.08;;;11.05;;
86088;SDS011;76699;52.232;5.176;2024-03-08T11:22:32;15.98;;;9.38;;
86088;SDS011;76699;52.232;5.176;2024-03-08T11:24:58;18.52;;;11.02;;
86088;SDS011;76699;52.232;5.176;2024-03-08T11:27:30;18.00;;;10.20;;
86088;SDS011;76699;52.232;5.176;2024-03-08T11:30:14;21.30;;;11.63;;
86088;SDS011;76699;52.232;5.176;2024-03-08T11:32:50;15.88;;;9.48;;
86088;SDS011;76699;52.232;5.176;2024-03-08T11:35:21;13.70;;;8.45;;
86088;SDS011;76699;52.232;5.176;2024-03-08T11:37:50;11.23;;;7.00;;
86088;SDS011;76699;52.232;5.176;2024-03-08T11:40:16;15.00;;;8.63;;
86088;SDS011;76699;52.232;5.176;2024-03-08T11:42:47;15.20;;;8.05;;
86088;SDS011;76699;52.232;5.176;2024-03-08T11:45:14;19.58;;;10.35;;
86088;SDS011;76699;52.232;5.176;2024-03-08T11:47:42;16.92;;;9.38;;
86088;SDS011;76699;52.232;5.176;2024-03-08T11:50:10;19.02;;;10.57;;
86088;SDS011;76699;52.232;5.176;2024-03-08T11:52:36;14.88;;;8.95;;
86088;SDS011;76699;52.232;5.176;2024-03-08T11:55:02;16.77;;;8.60;;
86088;SDS011;76699;52.232;5.176;2024-03-08T11:57:30;18.67;;;10.30;;
86088;SDS011;76699;52.232;5.176;2024-03-08T11:59:55;13.20;;;7.28;;
86088;SDS011;76699;52.232;5.176;2024-03-08T12:02:22;17.52;;;8.75;;
86088;SDS011;76699;52.232;5.176;2024-03-08T12:04:50;15.80;;;8.02;;
86088;SDS011;76699;52.232;5.176;2024-03-08T12:07:21;18.85;;;9.90;;
86088;SDS011;76699;52.232;5.176;2024-03-08T12:10:13;12.02;;;7.47;;
86088;SDS011;76699;52.232;5.176;2024-03-08T12:12:47;15.20;;;7.75;;
86088;SDS011;76699;52.232;5.176;2024-03-08T12:15:24;14.27;;;7.40;;
86088;SDS011;76699;52.232;5.176;2024-03-08T12:17:51;17.40;;;8.50;;
86088;SDS011;76699;52.232;5.176;2024-03-08T12:20:18;12.25;;;6.20;;
86088;SDS011;76699;52.232;5.176;2024-03-08T12:22:46;15.35;;;6.93;;
86088;SDS011;76699;52.232;5.176;2024-03-08T12:25:12;14.60;;;7.82;;
86088;SDS011;76699;52.232;5.176;2024-03-08T12:27:41;15.68;;;7.78;;
86088;SDS011;76699;52.232;5.176;2024-03-08T12:30:26;13.23;;;7.53;;
86088;SDS011;76699;52.232;5.176;2024-03-08T12:32:59;11.60;;;6.55;;
86088;SDS011;76699;52.232;5.176;2024-03-08T12:35:28;12.30;;;6.80;;
86088;SDS011;76699;52.232;5.176;2024-03-08T12:37:56;14.15;;;6.63;;
86088;SDS011;76699;52.232;5.176;2024-03-08T12:40:26;17.55;;;8.18;;
86088;SDS011;76699;52.232;5.176;2024-03-08T12:42:53;16.55;;;8.52;;
86088;SDS011;76699;52.232;5.176;2024-03-08T12:45:20;14.32;;;7.35;;
86088;SDS011;76699;52.232;5.176;2024-03-08T12:47:47;14.45;;;8.05;;
86088;SDS011;76699;52.232;5.176;2024-03-08T12:50:12;10.15;;;6.20;;
86088;SDS011;76699;52.232;5.176;2024-03-08T12:52:38;14.53;;;8.20;;
86088;SDS011;76699;52.232;5.176;2024-03-08T12:55:03;14.18;;;6.32;;
86088;SDS011;76699;52.232;5.176;2024-03-08T12:57:32;14.30;;;7.18;;
86088;SDS011;76699;52.232;5.176;2024-03-08T12:59:59;13.30;;;6.88;;
86088;SDS011;76699;52.232;5.176;2024-03-08T13:02:24;16.67;;;8.65;;
86088;SDS011;76699;52.232;5.176;2024-03-08T13:04:51;13.85;;;7.10;;
86088;SDS011;76699;52.232;5.176;2024-03-08T13:07:22;15.98;;;7.47;;
86088;SDS011;76699;52.232;5.176;2024-03-08T13:09:48;14.95;;;7.78;;
86088;SDS011;76699;52.232;5.176;2024-03-08T13:12:14;14.88;;;8.00;;
86088;SDS011;76699;52.232;5.176;2024-03-08T13:14:40;12.68;;;6.88;;
86088;SDS011;76699;52.232;5.176;2024-03-08T13:17:06;11.35;;;7.28;;
86088;SDS011;76699;52.232;5.176;2024-03-08T13:22:01;12.63;;;6.87;;
86088;SDS011;76699;52.232;5.176;2024-03-08T13:24:29;14.13;;;7.15;;
86088;SDS011;76699;52.232;5.176;2024-03-08T13:26:54;16.23;;;8.30;;
86088;SDS011;76699;52.232;5.176;2024-03-08T13:29:20;12.93;;;7.82;;
86088;SDS011;76699;52.232;5.176;2024-03-08T13:31:46;19.63;;;10.13;;
86088;SDS011;76699;52.232;5.176;2024-03-08T13:34:14;13.82;;;7.72;;
86088;SDS011;76699;52.232;5.176;2024-03-08T13:36:40;14.15;;;7.47;;
86088;SDS011;76699;52.232;5.176;2024-03-08T13:39:09;16.13;;;8.35;;
86088;SDS011;76699;52.232;5.176;2024-03-08T13:41:40;15.82;;;9.02;;
86088;SDS011;76699;52.232;5.176;2024-03-08T13:44:09;19.52;;;9.57;;
86088;SDS011;76699;52.232;5.176;2024-03-08T13:46:35;12.15;;;5.97;;
86088;SDS011;76699;52.232;5.176;2024-03-08T13:49:03;15.25;;;8.05;;
86088;SDS011;76699;52.232;5.176;2024-03-08T13:51:33;16.35;;;7.70;;
86088;SDS011;76699;52.232;5.176;2024-03-08T13:53:58;14.88;;;8.18;;
86088;SDS011;76699;52.232;5.176;2024-03-08T13:56:25;13.75;;;7.07;;
86088;SDS011;76699;52.232;5.176;2024-03-08T13:58:51;13.00;;;6.72;;
86088;SDS011;76699;52.232;5.176;2024-03-08T14:01:16;17.20;;;7.90;;
86088;SDS011;76699;52.232;5.176;2024-03-08T14:03:42;16.43;;;8.80;;
86088;SDS011;76699;52.232;5.176;2024-03-08T14:06:07;14.07;;;7.22;;
86088;SDS011;76699;52.232;5.176;2024-03-08T14:08:34;15.75;;;7.43;;
86088;SDS011;76699;52.232;5.176;2024-03-08T14:11:02;16.08;;;7.57;;
86088;SDS011;76699;52.232;5.176;2024-03-08T14:13:36;15.07;;;8.43;;
86088;SDS011;76699;52.232;5.176;2024-03-08T14:18:30;12.10;;;6.40;;
86088;SDS011;76699;52.232;5.176;2024-03-08T14:20:56;15.90;;;8.73;;
86088;SDS011;76699;52.232;5.176;2024-03-08T14:23:21;13.93;;;6.50;;
86088;SDS011;76699;52.232;5.176;2024-03-08T14:25:48;15.60;;;7.90;;
86088;SDS011;76699;52.232;5.176;2024-03-08T14:28:16;17.25;;;8.10;;
86088;SDS011;76699;52.232;5.176;2024-03-08T14:30:44;12.77;;;6.15;;
86088;SDS011;76699;52.232;5.176;2024-03-08T14:33:09;14.40;;;7.67;;
86088;SDS011;76699;52.232;5.176;2024-03-08T14:35:35;14.32;;;7.07;;
86088;SDS011;76699;52.232;5.176;2024-03-08T14:38:01;15.32;;;8.63;;
86088;SDS011;76699;52.232;5.176;2024-03-08T14:40:27;13.98;;;6.53;;
86088;SDS011;76699;52.232;5.176;2024-03-08T14:42:55;16.02;;;9.70;;
86088;SDS011;76699;52.232;5.176;2024-03-08T14:45:21;16.25;;;7.90;;